createdAt,value
2018-06-17T00:00:31.516Z,1009.53
2018-06-17T00:01:31.542Z,1009.52
2018-06-17T00:02:31.565Z,1009.54
2018-06-17T00:03:31.591Z,1009.5
2018-06-17T00:04:31.616Z,1009.48
2018-06-17T00:05:31.641Z,1009.52
2018-06-17T00:06:31.666Z,1009.49
2018-06-17T00:07:31.690Z,1009.47
2018-06-17T00:08:31.717Z,1009.52
2018-06-17T00:09:31.741Z,1009.55
2018-06-17T00:11:31.791Z,1009.5
2018-06-17T00:12:31.817Z,1009.46
2018-06-17T00:13:31.841Z,1009.5
2018-06-17T00:14:31.867Z,1009.5
2018-06-17T00:15:31.890Z,1009.51
2018-06-17T00:16:31.914Z,1009.52
2018-06-17T00:17:31.941Z,1009.52
2018-06-17T00:18:31.966Z,1009.52
2018-06-17T00:19:31.991Z,1009.51
2018-06-17T00:20:32.015Z,1009.49
2018-06-17T00:21:32.041Z,1009.52
2018-06-17T00:22:32.066Z,1009.53
2018-06-17T00:23:32.091Z,1009.54
2018-06-17T00:24:32.117Z,1009.51
2018-06-17T00:26:32.168Z,1009.5
2018-06-17T00:27:32.191Z,1009.57
2018-06-17T00:28:32.215Z,1009.55
2018-06-17T00:29:32.242Z,1009.53
2018-06-17T00:30:32.267Z,1009.51
2018-06-17T00:31:32.291Z,1009.55
2018-06-17T00:32:32.315Z,1009.53
2018-06-17T00:33:32.342Z,1009.54
2018-06-17T00:34:32.365Z,1009.55
2018-06-17T00:35:32.390Z,1009.56
2018-06-17T00:36:32.417Z,1009.54
2018-06-17T00:37:32.444Z,1009.54
2018-06-17T00:38:32.468Z,1009.53
2018-06-17T00:39:32.490Z,1009.53
2018-06-17T00:40:32.516Z,1009.49
2018-06-17T00:41:32.541Z,1009.49
2018-06-17T00:42:32.568Z,1009.49
2018-06-17T00:43:32.591Z,1009.48
2018-06-17T00:44:32.616Z,1009.46
2018-06-17T00:45:32.641Z,1009.43
2018-06-17T00:46:32.667Z,1009.43
2018-06-17T00:47:32.691Z,1009.43
2018-06-17T00:48:32.716Z,1009.42
2018-06-17T00:49:32.741Z,1009.42
2018-06-17T00:50:32.765Z,1009.45
2018-06-17T00:51:32.792Z,1009.42
2018-06-17T00:52:32.816Z,1009.41
2018-06-17T00:53:32.841Z,1009.41
2018-06-17T00:54:32.866Z,1009.41
2018-06-17T00:55:32.892Z,1009.4
2018-06-17T00:56:32.919Z,1009.42
2018-06-17T00:58:32.966Z,1009.44
2018-06-17T00:59:32.990Z,1009.44
2018-06-17T01:00:33.015Z,1009.43
2018-06-17T01:01:33.040Z,1009.41
2018-06-17T01:02:33.065Z,1009.43
2018-06-17T01:03:33.094Z,1009.45
2018-06-17T01:04:33.115Z,1009.43
2018-06-17T01:05:33.139Z,1009.42
2018-06-17T01:06:33.165Z,1009.45
2018-06-17T01:07:33.189Z,1009.44
2018-06-17T01:08:33.215Z,1009.43
2018-06-17T01:09:33.245Z,1009.46
2018-06-17T01:10:33.264Z,1009.47
2018-06-17T01:11:33.288Z,1009.44
2018-06-17T01:12:33.312Z,1009.49
2018-06-17T01:14:33.364Z,1009.46
2018-06-17T01:15:33.387Z,1009.44
2018-06-17T01:16:33.412Z,1009.45
2018-06-17T01:17:33.438Z,1009.42
2018-06-17T01:18:33.464Z,1009.38
2018-06-17T01:19:33.486Z,1009.4
2018-06-17T01:20:33.512Z,1009.41
2018-06-17T01:21:33.538Z,1009.37
2018-06-17T01:22:33.562Z,1009.41
2018-06-17T01:23:33.586Z,1009.32
2018-06-17T01:24:33.612Z,1009.39
2018-06-17T01:25:33.641Z,1009.35
2018-06-17T01:26:33.664Z,1009.35
2018-06-17T01:27:33.687Z,1009.37
2018-06-17T01:28:33.711Z,1009.39
2018-06-17T01:30:33.802Z,1009.37
2018-06-17T01:31:33.786Z,1009.37
2018-06-17T01:32:33.811Z,1009.3
2018-06-17T01:33:33.833Z,1009.3
2018-06-17T01:34:33.860Z,1009.34
2018-06-17T01:35:33.885Z,1009.33
2018-06-17T01:36:33.909Z,1009.36
2018-06-17T01:37:33.934Z,1009.33
2018-06-17T01:38:33.958Z,1009.35
2018-06-17T01:39:33.983Z,1009.36
2018-06-17T01:40:34.008Z,1009.37
2018-06-17T01:41:34.032Z,1009.39
2018-06-17T01:42:34.058Z,1009.36
2018-06-17T01:43:34.085Z,1009.33
2018-06-17T01:44:34.107Z,1009.32
2018-06-17T01:46:34.157Z,1009.32
2018-06-17T01:47:34.182Z,1009.31
2018-06-17T01:48:34.207Z,1009.33
2018-06-17T01:49:34.231Z,1009.32
2018-06-17T01:50:34.263Z,1009.32
2018-06-17T01:51:34.277Z,1009.31
2018-06-17T01:52:34.303Z,1009.35
2018-06-17T01:53:34.329Z,1009.33
2018-06-17T01:54:34.363Z,1009.3
2018-06-17T01:55:34.378Z,1009.3
2018-06-17T01:56:34.403Z,1009.31
2018-06-17T01:57:34.426Z,1009.33
2018-06-17T01:58:34.453Z,1009.31
2018-06-17T01:59:34.476Z,1009.3
2018-06-17T02:01:34.526Z,1009.28
2018-06-17T02:02:34.549Z,1009.29
2018-06-17T02:03:34.573Z,1009.28
2018-06-17T02:04:34.600Z,1009.28
2018-06-17T02:05:34.625Z,1009.29
2018-06-17T02:06:34.648Z,1009.28
2018-06-17T02:07:34.677Z,1009.29
2018-06-17T02:08:34.697Z,1009.3
2018-06-17T02:09:34.722Z,1009.31
2018-06-17T02:10:34.746Z,1009.29
2018-06-17T02:11:34.771Z,1009.34
2018-06-17T02:12:34.796Z,1009.32
2018-06-17T02:13:34.820Z,1009.3
2018-06-17T02:14:34.845Z,1009.3
2018-06-17T02:15:34.869Z,1009.32
2018-06-17T02:16:34.894Z,1009.28
2018-06-17T02:17:34.918Z,1009.26
2018-06-17T02:18:34.943Z,1009.29
2018-06-17T02:19:34.967Z,1009.24
2018-06-17T02:20:34.992Z,1009.24
2018-06-17T02:21:35.016Z,1009.25
2018-06-17T02:22:35.041Z,1009.24
2018-06-17T02:23:35.064Z,1009.26
2018-06-17T02:24:35.089Z,1009.23
2018-06-17T02:25:35.114Z,1009.25
2018-06-17T02:26:35.138Z,1009.21
2018-06-17T02:27:35.162Z,1009.2
2018-06-17T02:28:35.187Z,1009.22
2018-06-17T02:29:35.210Z,1009.2
2018-06-17T02:30:35.286Z,1009.22
2018-06-17T02:31:35.261Z,1009.22
2018-06-17T02:33:35.308Z,1009.2
2018-06-17T02:34:35.487Z,1009.24
2018-06-17T02:35:35.358Z,1009.23
2018-06-17T02:36:35.383Z,1009.22
2018-06-17T02:37:35.407Z,1009.2
2018-06-17T02:38:35.433Z,1009.2
2018-06-17T02:39:35.457Z,1009.2
2018-06-17T02:40:35.480Z,1009.19
2018-06-17T02:41:35.504Z,1009.19
2018-06-17T02:42:35.527Z,1009.15
2018-06-17T02:43:35.551Z,1009.15
2018-06-17T02:44:35.577Z,1009.15
2018-06-17T02:45:35.605Z,1009.11
2018-06-17T02:46:35.634Z,1009.15
2018-06-17T02:47:35.648Z,1009.12
2018-06-17T02:49:35.697Z,1009.08
2018-06-17T02:50:35.723Z,1009.11
2018-06-17T02:51:35.746Z,1009.09
2018-06-17T02:52:35.772Z,1009.11
2018-06-17T02:53:35.795Z,1009.05
2018-06-17T02:54:35.819Z,1009.06
2018-06-17T02:55:35.843Z,1009.08
2018-06-17T02:56:35.868Z,1009.05
2018-06-17T02:57:35.891Z,1009.03
2018-06-17T02:58:35.917Z,1009.03
2018-06-17T02:59:35.941Z,1009.07
2018-06-17T03:00:35.965Z,1009.03
2018-06-17T03:01:35.987Z,1009.02
2018-06-17T03:02:36.013Z,1009
2018-06-17T03:03:36.037Z,1008.99
2018-06-17T03:05:36.084Z,1008.99
2018-06-17T03:06:36.111Z,1009
2018-06-17T03:07:36.135Z,1008.99
2018-06-17T03:08:36.158Z,1008.98
2018-06-17T03:09:36.183Z,1008.96
2018-06-17T03:10:36.210Z,1009.01
2018-06-17T03:11:36.242Z,1008.95
2018-06-17T03:12:36.255Z,1008.95
2018-06-17T03:13:36.280Z,1008.99
2018-06-17T03:14:36.304Z,1008.97
2018-06-17T03:15:36.327Z,1008.94
2018-06-17T03:16:36.352Z,1008.98
2018-06-17T03:17:36.377Z,1008.97
2018-06-17T03:18:36.402Z,1008.98
2018-06-17T03:19:36.425Z,1008.99
2018-06-17T03:21:36.474Z,1008.94
2018-06-17T03:22:36.497Z,1008.96
2018-06-17T03:23:36.519Z,1008.94
2018-06-17T03:24:36.546Z,1008.91
2018-06-17T03:25:36.568Z,1008.94
2018-06-17T03:26:36.592Z,1008.91
2018-06-17T03:27:36.617Z,1008.95
2018-06-17T03:28:36.645Z,1009
2018-06-17T03:29:36.668Z,1008.96
2018-06-17T03:30:36.691Z,1008.97
2018-06-17T03:31:36.715Z,1008.94
2018-06-17T03:32:36.739Z,1008.96
2018-06-17T03:33:36.764Z,1008.93
2018-06-17T03:34:36.788Z,1008.96
2018-06-17T03:36:36.836Z,1008.94
2018-06-17T03:37:36.869Z,1008.9
2018-06-17T03:38:36.890Z,1008.92
2018-06-17T03:39:36.910Z,1008.97
2018-06-17T03:40:36.934Z,1008.94
2018-06-17T03:41:36.959Z,1008.96
2018-06-17T03:42:36.985Z,1008.96
2018-06-17T03:43:37.007Z,1008.92
2018-06-17T03:44:37.029Z,1008.93
2018-06-17T03:45:37.054Z,1008.93
2018-06-17T03:46:37.078Z,1008.92
2018-06-17T03:47:37.103Z,1008.92
2018-06-17T03:48:37.125Z,1008.94
2018-06-17T03:49:37.160Z,1008.92
2018-06-17T03:50:37.176Z,1008.94
2018-06-17T03:51:37.200Z,1008.98
2018-06-17T03:52:37.225Z,1008.95
2018-06-17T03:53:37.248Z,1008.98
2018-06-17T03:54:37.275Z,1009.04
2018-06-17T03:55:37.299Z,1009.03
2018-06-17T03:56:37.320Z,1008.99
2018-06-17T03:57:37.350Z,1008.98
2018-06-17T03:58:37.369Z,1009.04
2018-06-17T03:59:37.392Z,1009
2018-06-17T04:00:37.419Z,1009.02
2018-06-17T04:01:37.443Z,1009.06
2018-06-17T04:02:37.468Z,1009.03
2018-06-17T04:03:37.492Z,1009.08
2018-06-17T04:04:37.515Z,1009.05
2018-06-17T04:05:37.540Z,1009.04
2018-06-17T04:06:37.576Z,1009.06
2018-06-17T04:08:37.613Z,1009.1
2018-06-17T04:09:37.637Z,1009.17
2018-06-17T04:10:37.661Z,1009.26
2018-06-17T04:11:37.687Z,1009.38
2018-06-17T04:12:37.712Z,1009.41
2018-06-17T04:13:37.737Z,1009.41
2018-06-17T04:14:37.761Z,1009.37
2018-06-17T04:15:37.787Z,1009.41
2018-06-17T04:16:37.812Z,1009.43
2018-06-17T04:17:37.836Z,1009.46
2018-06-17T04:18:37.862Z,1009.49
2018-06-17T04:19:37.887Z,1009.46
2018-06-17T04:20:37.914Z,1009.46
2018-06-17T04:21:37.945Z,1009.46
2018-06-17T04:22:37.966Z,1009.5
2018-06-17T04:24:38.020Z,1009.51
2018-06-17T04:25:38.067Z,1009.53
2018-06-17T04:26:38.073Z,1009.55
2018-06-17T04:27:38.101Z,1009.56
2018-06-17T04:28:38.126Z,1009.59
2018-06-17T04:29:38.160Z,1009.62
2018-06-17T04:30:38.183Z,1009.6
2018-06-17T04:31:38.212Z,1009.64
2018-06-17T04:32:38.239Z,1009.64
2018-06-17T04:33:38.269Z,1009.63
2018-06-17T04:34:38.295Z,1009.57
2018-06-17T04:35:38.325Z,1009.58
2018-06-17T04:36:38.352Z,1009.59
2018-06-17T04:37:38.386Z,1009.62
2018-06-17T04:38:38.412Z,1009.56
2018-06-17T04:40:38.470Z,1009.5
2018-06-17T04:41:38.501Z,1009.51
2018-06-17T04:42:38.531Z,1009.47
2018-06-17T04:43:38.610Z,1009.48
2018-06-17T04:44:38.591Z,1009.48
2018-06-17T04:45:38.622Z,1009.47
2018-06-17T04:46:38.653Z,1009.42
2018-06-17T04:47:38.683Z,1009.44
2018-06-17T04:48:38.712Z,1009.47
2018-06-17T04:49:38.744Z,1009.44
2018-06-17T04:50:38.777Z,1009.45
2018-06-17T04:51:38.807Z,1009.47
2018-06-17T04:52:38.838Z,1009.46
2018-06-17T04:53:38.870Z,1009.43
2018-06-17T04:54:38.901Z,1009.44
2018-06-17T04:56:38.966Z,1009.45
2018-06-17T04:57:38.998Z,1009.54
2018-06-17T04:58:39.028Z,1009.54
2018-06-17T04:59:39.062Z,1009.54
2018-06-17T05:00:39.094Z,1009.57
2018-06-17T05:01:39.126Z,1009.58
2018-06-17T05:02:39.160Z,1009.62
2018-06-17T05:03:39.199Z,1009.63
2018-06-17T05:04:39.226Z,1009.67
2018-06-17T05:05:39.258Z,1009.64
2018-06-17T05:06:39.290Z,1009.69
2018-06-17T05:07:39.323Z,1009.68
2018-06-17T05:08:39.358Z,1009.72
2018-06-17T05:09:39.391Z,1009.71
2018-06-17T05:11:39.459Z,1009.79
2018-06-17T05:12:39.495Z,1009.79
2018-06-17T05:13:39.526Z,1009.79
2018-06-17T05:14:39.560Z,1009.81
2018-06-17T05:15:39.593Z,1009.5
2018-06-17T05:16:39.627Z,1009.57
2018-06-17T05:17:39.661Z,1009.73
2018-06-17T05:18:39.702Z,1009.6
2018-06-17T05:19:39.728Z,1009.98
2018-06-17T05:20:39.763Z,1009.77
2018-06-17T05:21:39.796Z,1009.54
2018-06-17T05:22:39.831Z,1009.51
2018-06-17T05:23:39.862Z,1009.51
2018-06-17T05:24:39.895Z,1009.53
2018-06-17T05:25:39.928Z,1009.53
2018-06-17T05:26:39.962Z,1009.55
2018-06-17T05:27:39.991Z,1009.61
2018-06-17T05:28:40.024Z,1009.67
2018-06-17T05:29:40.056Z,1009.69
2018-06-17T05:30:40.088Z,1010.15
2018-06-17T05:31:40.118Z,1010.09
2018-06-17T05:32:40.151Z,1010.07
2018-06-17T05:33:40.206Z,1009.95
2018-06-17T05:34:40.313Z,1009.7
2018-06-17T05:35:40.245Z,1009.81
2018-06-17T05:36:40.278Z,1009.75
2018-06-17T05:37:40.309Z,1009.9
2018-06-17T05:38:40.340Z,1009.71
2018-06-17T05:39:40.422Z,1009.84
2018-06-17T05:40:40.407Z,1010.11
2018-06-17T05:41:40.437Z,1009.7
2018-06-17T05:43:40.498Z,1009.67
2018-06-17T05:44:40.532Z,1009.71
2018-06-17T05:45:40.562Z,1009.7
2018-06-17T05:46:40.591Z,1009.72
2018-06-17T05:47:40.626Z,1009.75
2018-06-17T05:48:40.659Z,1009.8
2018-06-17T05:49:40.685Z,1009.89
2018-06-17T05:50:40.717Z,1010.15
2018-06-17T05:51:40.749Z,1010.18
2018-06-17T05:52:40.778Z,1009.88
2018-06-17T05:53:40.812Z,1010.18
2018-06-17T05:54:40.842Z,1010.07
2018-06-17T05:55:40.884Z,1010.22
2018-06-17T05:56:40.904Z,1010.14
2018-06-17T05:57:40.941Z,1010.16
2018-06-17T05:59:41.001Z,1010.24
2018-06-17T06:00:41.034Z,1010.24
2018-06-17T06:01:41.067Z,1010.19
2018-06-17T06:02:41.099Z,1010.03
2018-06-17T06:03:41.133Z,1010.24
2018-06-17T06:04:41.170Z,1010.25
2018-06-17T06:05:41.200Z,1010.2
2018-06-17T06:06:41.233Z,1010.25
2018-06-17T06:07:41.266Z,1010.16
2018-06-17T06:08:41.301Z,1010.17
2018-06-17T06:09:41.337Z,1010.18
2018-06-17T06:10:41.371Z,1010.11
2018-06-17T06:11:41.405Z,1010.12
2018-06-17T06:12:41.440Z,1010.12
2018-06-17T06:13:41.474Z,1010.13
2018-06-17T06:15:41.545Z,1010.08
2018-06-17T06:16:41.681Z,1010.1
2018-06-17T06:17:41.616Z,1010.12
2018-06-17T06:18:41.652Z,1010.07
2018-06-17T06:19:41.688Z,1010.07
2018-06-17T06:20:41.729Z,1010.06
2018-06-17T06:21:41.761Z,1010.04
2018-06-17T06:22:41.796Z,1010.08
2018-06-17T06:23:41.832Z,1010.06
2018-06-17T06:24:41.907Z,1010.07
2018-06-17T06:25:41.905Z,1010.07
2018-06-17T06:26:41.942Z,1010.14
2018-06-17T06:27:41.987Z,1010.16
2018-06-17T06:28:42.017Z,1010.15
2018-06-17T06:29:42.052Z,1010.2
2018-06-17T06:31:42.125Z,1010.19
2018-06-17T06:32:42.163Z,1010.26
2018-06-17T06:33:42.204Z,1010.24
2018-06-17T06:34:42.237Z,1010.26
2018-06-17T06:35:42.274Z,1010.31
2018-06-17T06:36:42.313Z,1010.3
2018-06-17T06:37:42.350Z,1010.34
2018-06-17T06:38:42.387Z,1010.34
2018-06-17T06:39:42.425Z,1010.34
2018-06-17T06:40:42.462Z,1010.34
2018-06-17T06:41:42.502Z,1010.35
2018-06-17T06:42:42.538Z,1010.38
2018-06-17T06:43:42.578Z,1010.4
2018-06-17T06:44:42.615Z,1010.4
2018-06-17T06:46:42.691Z,1010.41
2018-06-17T06:47:42.729Z,1010.46
2018-06-17T06:48:42.768Z,1010.41
2018-06-17T06:49:42.807Z,1010.39
2018-06-17T06:50:42.845Z,1010.39
2018-06-17T06:51:42.882Z,1010.4
2018-06-17T06:52:42.972Z,1010.38
2018-06-17T06:53:42.961Z,1010.42
2018-06-17T06:54:42.998Z,1010.39
2018-06-17T06:55:43.041Z,1010.42
2018-06-17T06:56:43.074Z,1010.44
2018-06-17T06:57:43.114Z,1010.45
2018-06-17T06:58:43.152Z,1010.56
2018-06-17T06:59:43.191Z,1010.64
2018-06-17T07:00:43.229Z,1010.72
2018-06-17T07:01:43.269Z,1010.69
2018-06-17T07:02:43.306Z,1010.62
2018-06-17T07:03:43.345Z,1010.65
2018-06-17T07:04:43.390Z,1010.6
2018-06-17T07:05:43.421Z,1010.62
2018-06-17T07:06:43.460Z,1010.64
2018-06-17T07:07:43.554Z,1010.61
2018-06-17T07:08:43.538Z,1010.68
2018-06-17T07:09:43.580Z,1010.73
2018-06-17T07:10:43.620Z,1010.74
2018-06-17T07:11:43.653Z,1010.79
2018-06-17T07:12:43.693Z,1010.76
2018-06-17T07:13:43.730Z,1010.79
2018-06-17T07:14:43.768Z,1010.78
2018-06-17T07:15:43.808Z,1010.82
2018-06-17T07:16:43.867Z,1010.86
2018-06-17T07:18:43.925Z,1010.9
2018-06-17T07:19:43.964Z,1010.93
2018-06-17T07:20:44.000Z,1010.95
2018-06-17T07:21:44.039Z,1010.92
2018-06-17T07:22:44.080Z,1010.98
2018-06-17T07:23:44.118Z,1010.99
2018-06-17T07:24:44.155Z,1011.05
2018-06-17T07:25:44.194Z,1011.09
2018-06-17T07:26:44.235Z,1011.17
2018-06-17T07:27:44.270Z,1011.18
2018-06-17T07:28:44.310Z,1011.25
2018-06-17T07:29:44.349Z,1011.21
2018-06-17T07:30:44.388Z,1011.31
2018-06-17T07:31:44.425Z,1011.39
2018-06-17T07:32:44.588Z,1011.42
2018-06-17T07:34:44.542Z,1011.42
2018-06-17T07:35:44.581Z,1011.49
2018-06-17T07:36:44.618Z,1011.57
2018-06-17T07:37:44.656Z,1011.62
2018-06-17T07:38:44.695Z,1011.62
2018-06-17T07:39:44.733Z,1011.69
2018-06-17T07:40:44.772Z,1011.73
2018-06-17T07:41:44.811Z,1011.73
2018-06-17T07:42:44.849Z,1011.77
2018-06-17T07:43:45.081Z,1011.77
2018-06-17T07:44:44.926Z,1011.87
2018-06-17T07:45:44.964Z,1011.81
2018-06-17T07:46:45.003Z,1011.73
2018-06-17T07:47:45.043Z,1011.72
2018-06-17T07:48:45.080Z,1011.76
2018-06-17T07:50:45.157Z,1011.82
2018-06-17T07:51:45.195Z,1011.78
2018-06-17T07:52:45.234Z,1011.71
2018-06-17T07:53:45.270Z,1011.59
2018-06-17T07:54:45.311Z,1011.56
2018-06-17T07:55:45.347Z,1011.6
2018-06-17T07:56:45.387Z,1011.61
2018-06-17T07:57:45.423Z,1011.56
2018-06-17T07:58:45.461Z,1011.56
2018-06-17T07:59:45.505Z,1011.48
2018-06-17T08:00:45.539Z,1011.41
2018-06-17T08:01:45.577Z,1011.35
2018-06-17T08:02:45.618Z,1011.34
2018-06-17T08:03:45.652Z,1011.35
2018-06-17T08:04:45.766Z,1011.3
2018-06-17T08:06:45.767Z,1011.26
2018-06-17T08:07:45.807Z,1011.23
2018-06-17T08:08:45.844Z,1011.26
2018-06-17T08:09:45.881Z,1011.2
2018-06-17T08:10:45.953Z,1011.2
2018-06-17T08:11:45.958Z,1011.23
2018-06-17T08:12:45.995Z,1011.23
2018-06-17T08:13:46.034Z,1011.16
2018-06-17T08:14:46.171Z,1011.09
2018-06-17T08:15:46.110Z,1011.07
2018-06-17T08:16:46.148Z,1011.04
2018-06-17T08:17:46.185Z,1011.06
2018-06-17T08:18:46.223Z,1011.02
2018-06-17T08:19:46.266Z,1011.03
2018-06-17T08:21:46.339Z,1011.03
2018-06-17T08:22:46.375Z,1011.07
2018-06-17T08:23:46.413Z,1011.1
2018-06-17T08:24:46.452Z,1011.16
2018-06-17T08:25:46.491Z,1011.08
2018-06-17T08:26:46.526Z,1011.06
2018-06-17T08:27:46.563Z,1011.03
2018-06-17T08:28:46.601Z,1011
2018-06-17T08:29:46.639Z,1010.98
2018-06-17T08:30:46.677Z,1010.97
2018-06-17T08:31:46.714Z,1011
2018-06-17T08:32:46.757Z,1011.01
2018-06-17T08:33:46.788Z,1010.97
2018-06-17T08:34:46.826Z,1011.03
2018-06-17T08:35:46.864Z,1010.79
2018-06-17T08:36:46.903Z,1010.68
2018-06-17T08:37:46.939Z,1010.59
2018-06-17T08:38:46.975Z,1010.9
2018-06-17T08:39:47.012Z,1010.94
2018-06-17T08:40:47.066Z,1010.82
2018-06-17T08:41:47.085Z,1010.8
2018-06-17T08:42:47.121Z,1010.86
2018-06-17T08:43:47.160Z,1010.91
2018-06-17T08:44:47.246Z,1010.97
2018-06-17T08:45:47.233Z,1011.09
2018-06-17T08:46:47.321Z,1010.94
2018-06-17T08:47:47.305Z,1010.83
2018-06-17T08:48:47.341Z,1010.84
2018-06-17T08:49:47.379Z,1010.76
2018-06-17T08:50:47.415Z,1010.78
2018-06-17T08:51:47.451Z,1010.77
2018-06-17T08:53:47.526Z,1010.76
2018-06-17T08:54:47.563Z,1010.7
2018-06-17T08:55:47.598Z,1010.75
2018-06-17T08:56:47.635Z,1010.71
2018-06-17T08:57:47.671Z,1010.71
2018-06-17T08:58:47.710Z,1010.74
2018-06-17T08:59:47.744Z,1010.63
2018-06-17T09:00:47.780Z,1010.63
2018-06-17T09:01:47.819Z,1010.59
2018-06-17T09:02:47.852Z,1010.55
2018-06-17T09:03:47.890Z,1010.56
2018-06-17T09:04:47.927Z,1010.49
2018-06-17T09:05:47.963Z,1010.52
2018-06-17T09:06:47.998Z,1010.53
2018-06-17T09:07:48.035Z,1010.55
2018-06-17T09:09:48.109Z,1010.49
2018-06-17T09:10:48.144Z,1010.48
2018-06-17T09:11:48.179Z,1010.58
2018-06-17T09:12:48.225Z,1010.59
2018-06-17T09:13:48.255Z,1010.53
2018-06-17T09:14:48.289Z,1010.57
2018-06-17T09:15:48.325Z,1010.49
2018-06-17T09:16:48.368Z,1010.52
2018-06-17T09:17:48.397Z,1010.51
2018-06-17T09:18:48.441Z,1010.59
2018-06-17T09:19:48.468Z,1010.59
2018-06-17T09:20:48.506Z,1010.54
2018-06-17T09:21:48.540Z,1010.52
2018-06-17T09:22:48.603Z,1010.5
2018-06-17T09:23:48.614Z,1010.49
2018-06-17T09:25:48.685Z,1010.5
2018-06-17T09:26:48.721Z,1010.46
2018-06-17T09:27:48.758Z,1010.37
2018-06-17T09:28:48.796Z,1010.46
2018-06-17T09:29:48.828Z,1010.46
2018-06-17T09:30:48.863Z,1010.45
2018-06-17T09:31:48.972Z,1010.45
2018-06-17T09:32:48.936Z,1010.44
2018-06-17T09:33:48.972Z,1010.4
2018-06-17T09:34:49.007Z,1010.37
2018-06-17T09:35:49.042Z,1010.35
2018-06-17T09:36:49.078Z,1010.35
2018-06-17T09:37:49.113Z,1010.36
2018-06-17T09:38:49.149Z,1010.32
2018-06-17T09:39:49.186Z,1010.31
2018-06-17T09:41:49.256Z,1010.26
2018-06-17T09:42:49.290Z,1010.27
2018-06-17T09:43:49.325Z,1010.29
2018-06-17T09:44:49.359Z,1010.35
2018-06-17T09:45:49.399Z,1010.36
2018-06-17T09:46:49.430Z,1010.33
2018-06-17T09:47:49.466Z,1010.38
2018-06-17T09:48:49.502Z,1010.41
2018-06-17T09:49:49.537Z,1010.38
2018-06-17T09:50:49.572Z,1010.34
2018-06-17T09:51:49.608Z,1010.34
2018-06-17T09:52:49.643Z,1010.3
2018-06-17T09:53:49.677Z,1010.29
2018-06-17T09:54:49.714Z,1010.23
2018-06-17T09:56:49.784Z,1010.34
2018-06-17T09:57:49.821Z,1010.32
2018-06-17T09:58:49.854Z,1010.37
2018-06-17T09:59:49.890Z,1010.37
2018-06-17T10:00:49.924Z,1010.34
2018-06-17T10:01:49.969Z,1010.29
2018-06-17T10:02:50.000Z,1010.27
2018-06-17T10:03:50.030Z,1010.38
2018-06-17T10:04:50.064Z,1010.3
2018-06-17T10:05:50.102Z,1010.29
2018-06-17T10:06:50.133Z,1010.3
2018-06-17T10:07:50.169Z,1010.3
2018-06-17T10:08:50.203Z,1010.31
2018-06-17T10:09:50.238Z,1010.3
2018-06-17T10:10:50.273Z,1010.32
2018-06-17T10:11:50.309Z,1010.34
2018-06-17T10:12:50.343Z,1010.31
2018-06-17T10:13:50.378Z,1010.36
2018-06-17T10:14:50.417Z,1010.33
2018-06-17T10:15:50.456Z,1010.32
2018-06-17T10:16:50.481Z,1010.28
2018-06-17T10:17:50.517Z,1010.34
2018-06-17T10:18:50.552Z,1010.32
2018-06-17T10:19:50.586Z,1010.29
2018-06-17T10:20:50.621Z,1010.35
2018-06-17T10:21:50.655Z,1010.36
2018-06-17T10:22:50.691Z,1010.38
2018-06-17T10:23:50.724Z,1010.31
2018-06-17T10:24:50.758Z,1010.34
2018-06-17T10:25:50.794Z,1010.34
2018-06-17T10:26:50.828Z,1010.3
2018-06-17T10:28:50.897Z,1010.27
2018-06-17T10:29:50.931Z,1010.28
2018-06-17T10:30:50.966Z,1010.23
2018-06-17T10:31:50.999Z,1010.31
2018-06-17T10:32:51.034Z,1010.25
2018-06-17T10:33:51.068Z,1010.36
2018-06-17T10:34:51.110Z,1010.32
2018-06-17T10:35:51.137Z,1010.26
2018-06-17T10:36:51.170Z,1010.29
2018-06-17T10:37:51.202Z,1010.27
2018-06-17T10:38:51.236Z,1010.32
2018-06-17T10:39:51.271Z,1010.28
2018-06-17T10:40:51.304Z,1010.29
2018-06-17T10:41:51.437Z,1010.26
2018-06-17T10:42:51.370Z,1010.32
2018-06-17T10:44:51.437Z,1010.26
2018-06-17T10:45:51.470Z,1010.24
2018-06-17T10:46:51.503Z,1010.26
2018-06-17T10:47:51.536Z,1010.25
2018-06-17T10:48:51.608Z,1010.27
2018-06-17T10:49:51.602Z,1010.22
2018-06-17T10:50:51.634Z,1010.24
2018-06-17T10:51:51.669Z,1010.26
2018-06-17T10:52:51.703Z,1010.19
2018-06-17T10:53:51.733Z,1010.19
2018-06-17T10:54:51.766Z,1010.23
2018-06-17T10:55:51.995Z,1010.32
2018-06-17T10:56:51.831Z,1010.3
2018-06-17T10:57:51.862Z,1010.32
2018-06-17T10:58:51.897Z,1010.34
2018-06-17T11:00:51.961Z,1010.37
2018-06-17T11:01:51.992Z,1010.36
2018-06-17T11:02:52.025Z,1010.4
2018-06-17T11:03:52.057Z,1010.42
2018-06-17T11:04:52.088Z,1010.38
2018-06-17T11:05:52.122Z,1010.38
2018-06-17T11:06:52.154Z,1010.42
2018-06-17T11:07:52.185Z,1010.35
2018-06-17T11:08:52.218Z,1010.32
2018-06-17T11:09:52.254Z,1010.34
2018-06-17T11:10:52.282Z,1010.33
2018-06-17T11:11:52.314Z,1010.33
2018-06-17T11:12:52.347Z,1010.33
2018-06-17T11:13:52.378Z,1010.36
2018-06-17T11:14:52.409Z,1010.35
2018-06-17T11:16:52.472Z,1010.25
2018-06-17T11:17:52.504Z,1010.31
2018-06-17T11:18:52.536Z,1010.22
2018-06-17T11:19:52.570Z,1010.23
2018-06-17T11:20:52.604Z,1010.23
2018-06-17T11:21:52.631Z,1010.24
2018-06-17T11:22:52.662Z,1010.22
2018-06-17T11:23:52.693Z,1010.21
2018-06-17T11:24:52.725Z,1010.22
2018-06-17T11:25:52.755Z,1010.17
2018-06-17T11:26:52.788Z,1010.2
2018-06-17T11:27:52.823Z,1010.12
2018-06-17T11:28:52.851Z,1010.15
2018-06-17T11:29:52.882Z,1010.15
2018-06-17T11:31:52.945Z,1010.14
2018-06-17T11:32:52.977Z,1010.18
2018-06-17T11:33:53.008Z,1010.15
2018-06-17T11:34:53.041Z,1010.16
2018-06-17T11:35:53.071Z,1010.13
2018-06-17T11:36:53.102Z,1010.25
2018-06-17T11:37:53.135Z,1010.2
2018-06-17T11:38:53.220Z,1010.23
2018-06-17T11:39:53.197Z,1010.18
2018-06-17T11:40:53.229Z,1010.17
2018-06-17T11:41:53.262Z,1010.18
2018-06-17T11:42:53.292Z,1010.21
2018-06-17T11:43:53.322Z,1010.19
2018-06-17T11:44:53.354Z,1010.2
2018-06-17T11:45:53.387Z,1010.32
2018-06-17T11:46:53.418Z,1010.21
2018-06-17T11:47:53.449Z,1010.14
2018-06-17T11:48:53.480Z,1010.28
2018-06-17T11:49:53.513Z,1010.28
2018-06-17T11:50:53.564Z,1010.21
2018-06-17T11:51:53.576Z,1010.17
2018-06-17T11:52:53.610Z,1010.21
2018-06-17T11:53:53.640Z,1010.19
2018-06-17T11:54:53.676Z,1010.15
2018-06-17T11:55:53.702Z,1010.14
2018-06-17T11:56:53.734Z,1010.17
2018-06-17T11:57:53.770Z,1010.17
2018-06-17T11:58:53.798Z,1010.18
2018-06-17T11:59:53.827Z,1010.19
2018-06-17T12:00:53.858Z,1010.2
2018-06-17T12:01:53.913Z,1010.19
2018-06-17T12:03:53.950Z,1010.23
2018-06-17T12:04:53.987Z,1010.2
2018-06-17T12:05:54.013Z,1010.19
2018-06-17T12:06:54.043Z,1010.21
2018-06-17T12:07:54.075Z,1010.2
2018-06-17T12:08:54.107Z,1010.1
2018-06-17T12:09:54.135Z,1010.17
2018-06-17T12:10:54.168Z,1010.2
2018-06-17T12:11:54.199Z,1010.16
2018-06-17T12:12:54.227Z,1010.12
2018-06-17T12:13:54.260Z,1010.17
2018-06-17T12:14:54.292Z,1010.18
2018-06-17T12:15:54.324Z,1010.2
2018-06-17T12:16:54.352Z,1010.14
2018-06-17T12:17:54.386Z,1010.14
2018-06-17T12:19:54.444Z,1010.12
2018-06-17T12:20:54.477Z,1010.19
2018-06-17T12:21:54.508Z,1010.18
2018-06-17T12:22:54.537Z,1010.15
2018-06-17T12:23:54.567Z,1010.17
2018-06-17T12:24:54.599Z,1010.14
2018-06-17T12:25:54.629Z,1010.12
2018-06-17T12:26:54.662Z,1010.13
2018-06-17T12:27:54.690Z,1010.17
2018-06-17T12:28:54.721Z,1010.15
2018-06-17T12:29:54.753Z,1010.15
2018-06-17T12:30:54.786Z,1010.15
2018-06-17T12:31:54.812Z,1010.23
2018-06-17T12:32:54.843Z,1010.16
2018-06-17T12:33:54.873Z,1010.3
2018-06-17T12:35:54.935Z,1010.22
2018-06-17T12:36:54.966Z,1010.16
2018-06-17T12:37:54.997Z,1010.2
2018-06-17T12:38:55.030Z,1010.28
2018-06-17T12:39:55.057Z,1010.29
2018-06-17T12:40:55.090Z,1010.26
2018-06-17T12:41:55.120Z,1010.19
2018-06-17T12:42:55.149Z,1010.22
2018-06-17T12:43:55.180Z,1010.21
2018-06-17T12:44:55.211Z,1010.17
2018-06-17T12:45:55.240Z,1010.16
2018-06-17T12:46:55.272Z,1010.21
2018-06-17T12:47:55.302Z,1010.19
2018-06-17T12:48:55.334Z,1010.18